Time;durP1;ratioP1;P1;durP2;ratioP2;P2;SDS_P1;SDS_P2;PMS_P1;PMS_P2;Temp;Humidity;BMP_temperature;BMP_pressure;BME280_temperature;BME280_humidity;BME280_pressure;Samples;Min_cycle;Max_cycle;Signal;HPM_P1;HPM_P2
2021/11/02 00:00:03;;;;;;;;;;;;;;;19.52;62.14;100441.22;5050218;28;1542;-41
2021/11/02 00:02:30;;;;;;;;;;;;;;;19.51;62.04;100439.53;5053562;28;1771;-42
2021/11/02 00:04:56;;;;;;;;;;;;;;;19.48;62.01;100432.63;5046431;28;1736;-41
2021/11/02 00:07:23;;;;;;;;;;;;;;;19.41;60.72;100411.91;5045770;28;1861;-41
2021/11/02 00:09:52;;;;;;;;;;;;;;;19.33;60.92;100411.78;5046739;28;1769;-42
2021/11/02 00:12:22;;;;;;;;;;;;;;;19.53;60.39;100410.72;5050627;28;1692;-42
2021/11/02 00:14:48;;;;;;;;;;;;;;;19.53;61.79;100409.88;5045302;28;1936;-41
2021/11/02 00:17:19;;;;;;;;;;;;;;;19.44;60.84;100407.09;5051621;28;1915;-41
2021/11/02 00:19:48;;;;;;;;;;;;;;;19.43;60.47;100405.38;5055361;28;1936;-41
2021/11/02 00:22:16;;;;;;;;;;;;;;;19.45;60.60;100416.81;5048415;28;1877;-41
2021/11/02 00:27:29;;;;;;;;;;;;;;;19.45;60.40;100407.94;5053680;28;1762;-42
2021/11/02 00:29:55;;;;;;;;;;;;;;;19.43;61.42;100396.50;5054277;28;1787;-41
2021/11/02 00:32:22;;;;;;;;;;;;;;;19.50;60.77;100411.03;5053285;28;1916;-41
2021/11/02 00:34:49;;;;;;;;;;;;;;;19.49;59.63;100403.97;5052475;28;1906;-41
2021/11/02 00:37:16;;;;;;;;;;;;;;;19.39;60.11;100390.59;5051736;28;1874;-41
2021/11/02 00:39:42;;;;;;;;;;;;;;;19.42;60.76;100392.16;5037328;28;1652;-41
2021/11/02 00:42:09;;;;;;;;;;;;;;;19.35;60.46;100386.50;5049898;28;1623;-41
2021/11/02 00:44:37;;;;;;;;;;;;;;;19.38;60.62;100378.19;5045230;28;1776;-41
2021/11/02 00:47:05;;;;;;;;;;;;;;;19.38;60.13;100362.09;5055096;28;1688;-41
2021/11/02 00:49:31;;;;;;;;;;;;;;;19.37;60.28;100372.97;5054954;28;1679;-41
2021/11/02 00:51:58;;;;;;;;;;;;;;;19.33;60.91;100367.03;5053516;28;1626;-41
2021/11/02 00:54:25;;;;;;;;;;;;;;;19.29;60.99;100362.97;5052910;28;1973;-41
2021/11/02 00:56:51;;;;;;;;;;;;;;;19.34;60.28;100360.72;5054829;28;1753;-41
2021/11/02 00:59:18;;;;;;;;;;;;;;;19.37;61.07;100362.25;5053449;28;2621;-41
2021/11/02 01:01:45;;;;;;;;;;;;;;;19.30;60.26;100351.28;5054594;28;1858;-41
2021/11/02 01:04:12;;;;;;;;;;;;;;;19.27;60.48;100360.44;5050269;28;1649;-41
2021/11/02 01:06:39;;;;;;;;;;;;;;;19.25;60.27;100351.69;5053320;28;1789;-41
2021/11/02 01:09:06;;;;;;;;;;;;;;;19.23;60.97;100352.84;5055225;28;1556;-41
2021/11/02 01:11:33;;;;;;;;;;;;;;;19.34;60.63;100351.78;5054737;28;1824;-41
2021/11/02 01:14:00;;;;;;;;;;;;;;;19.25;60.21;100334.78;5052552;28;1781;-41
2021/11/02 01:16:27;;;;;;;;;;;;;;;19.29;59.29;100336.16;5047053;28;1906;-41
2021/11/02 01:18:55;;;;;;;;;;;;;;;19.38;59.92;100334.44;5045633;28;1740;-42
2021/11/02 01:21:22;;;;;;;;;;;;;;;19.26;60.07;100325.75;5045135;28;1761;-41
2021/11/02 01:23:49;;;;;;;;;;;;;;;19.18;60.46;100314.91;5041610;28;1843;-41
2021/11/02 01:26:16;;;;;;;;;;;;;;;19.29;60.43;100330.81;5054797;28;2166;-41
2021/11/02 01:28:42;;;;;;;;;;;;;;;19.28;59.50;100324.59;5048826;28;1724;-42
2021/11/02 01:31:09;;;;;;;;;;;;;;;19.31;59.76;100322.63;5039853;28;1744;-41
2021/11/02 01:33:36;;;;;;;;;;;;;;;19.32;60.25;100317.13;5052519;28;1941;-41
2021/11/02 01:36:04;;;;;;;;;;;;;;;19.27;60.36;100314.03;5053286;28;1906;-41
2021/11/02 01:38:30;;;;;;;;;;;;;;;19.20;60.11;100307.56;5055030;28;1716;-41
2021/11/02 01:40:58;;;;;;;;;;;;;;;19.24;60.48;100307.13;5054192;28;1984;-41
2021/11/02 01:43:24;;;;;;;;;;;;;;;19.25;60.38;100300.75;5054030;28;1608;-41
2021/11/02 01:45:51;;;;;;;;;;;;;;;19.33;60.06;100300.03;5049856;28;1967;-41
2021/11/02 01:48:18;;;;;;;;;;;;;;;19.52;59.66;100300.91;5052527;28;1640;-42
2021/11/02 01:50:45;;;;;;;;;;;;;;;19.39;59.97;100302.09;5045263;28;1729;-41
2021/11/02 01:53:13;;;;;;;;;;;;;;;19.43;59.06;100295.44;5055441;28;1072;-41
2021/11/02 01:55:40;;;;;;;;;;;;;;;19.37;59.82;100290.69;5053256;28;1914;-41
2021/11/02 01:58:08;;;;;;;;;;;;;;;19.45;58.96;100296.13;5044112;28;1564;-41
2021/11/02 02:00:36;;;;;;;;;;;;;;;19.30;59.12;100303.00;5052256;28;1582;-41
2021/11/02 02:03:06;;;;;;;;;;;;;;;19.22;60.19;100294.88;5051602;28;1598;-41
2021/11/02 02:05:37;;;;;;;;;;;;;;;19.65;60.04;100306.75;5053881;28;1890;-41
2021/11/02 02:08:11;;;;;;;;;;;;;;;19.79;60.25;100292.84;5049064;28;1419;-41
2021/11/02 02:10:43;;;;;;;;;;;;;;;20.08;58.78;100313.28;5041975;28;1899;-41
2021/11/02 02:13:17;;;;;;;;;;;;;;;20.03;60.18;100294.09;5045799;28;1576;-41
2021/11/02 02:15:45;;;;;;;;;;;;;;;19.67;60.48;100304.75;5051419;28;1968;-41
2021/11/02 02:18:15;;;;;;;;;;;;;;;19.61;61.05;100300.84;5052933;28;1988;-42
2021/11/02 02:21:09;;;;;;;;;;;;;;;19.75;59.97;100315.59;5050575;28;1579;-41
2021/11/02 02:23:50;;;;;;;;;;;;;;;19.73;60.72;100314.91;5045482;28;1742;-41
2021/11/02 02:26:23;;;;;;;;;;;;;;;19.53;61.06;100314.16;5040336;28;1962;-41
2021/11/02 02:28:57;;;;;;;;;;;;;;;19.58;60.10;100311.06;5043476;28;1593;-41
2021/11/02 02:31:24;;;;;;;;;;;;;;;19.94;60.49;100319.19;5047493;28;1772;-41
2021/11/02 02:33:51;;;;;;;;;;;;;;;19.75;61.09;100312.94;5045730;28;1604;-41
2021/11/02 02:36:18;;;;;;;;;;;;;;;19.67;61.00;100320.84;5045733;28;1997;-41
2021/11/02 02:38:46;;;;;;;;;;;;;;;19.65;61.16;100314.81;5045946;28;1525;-41
2021/11/02 02:41:13;;;;;;;;;;;;;;;19.95;60.53;100318.16;5046100;28;1929;-41
2021/11/02 02:43:41;;;;;;;;;;;;;;;19.77;59.55;100308.25;5052335;28;1498;-42
2021/11/02 02:46:10;;;;;;;;;;;;;;;19.60;60.57;100315.25;5045100;28;1664;-41
2021/11/02 02:48:37;;;;;;;;;;;;;;;19.70;60.38;100315.22;5053201;28;1828;-41
2021/11/02 02:51:04;;;;;;;;;;;;;;;19.97;59.98;100310.81;5051586;28;1553;-41
2021/11/02 02:53:31;;;;;;;;;;;;;;;19.62;61.05;100312.44;5045307;28;1414;-41
2021/11/02 02:56:00;;;;;;;;;;;;;;;19.67;60.37;100328.91;5043822;28;1977;-41
2021/11/02 02:58:29;;;;;;;;;;;;;;;19.67;60.94;100310.13;5051498;28;1728;-41
2021/11/02 03:01:33;;;;;;;;;;;;;;;20.04;60.42;100333.38;5151420;22;3714;-42
2021/11/02 03:04:05;;;;;;;;;;;;;;;19.78;59.86;100326.06;4988121;28;1802;-41
2021/11/02 03:06:39;;;;;;;;;;;;;;;19.64;60.54;100310.44;4992887;28;2010;-42
2021/11/02 03:09:07;;;;;;;;;;;;;;;19.77;59.73;100302.88;4981214;28;1551;-41
2021/11/02 03:11:34;;;;;;;;;;;;;;;19.81;59.50;100315.00;4982183;28;1338;-41
2021/11/02 03:14:06;;;;;;;;;;;;;;;19.72;60.68;100318.63;4991794;28;1540;-41
2021/11/02 03:16:44;;;;;;;;;;;;;;;19.65;60.46;100315.63;4989543;28;1977;-41
2021/11/02 03:44:56;;;;;;;;;;;;;;;19.66;59.55;100313.81;4991265;28;1849;-41
2021/11/02 03:50:21;;;;;;;;;;;;;;;19.89;59.90;100318.78;4985890;28;1730;-41
2021/11/02 03:55:42;;;;;;;;;;;;;;;19.66;61.01;100319.19;4988717;28;2348;-41
2021/11/02 03:58:14;;;;;;;;;;;;;;;19.63;59.74;100319.47;4991633;28;1688;-41
2021/11/02 04:35:16;;;;;;;;;;;;;;;19.34;61.93;100272.22;4970409;28;2475;-41
2021/11/02 05:09:27;;;;;;;;;;;;;;;19.62;62.59;100189.88;4957834;28;12904;-41
2021/11/02 05:48:30;;;;;;;;;;;;;;;19.75;63.31;100186.84;4999874;28;1425;-41
2021/11/02 05:54:10;;;;;;;;;;;;;;;19.54;62.66;100181.78;5011940;28;1143;-40
2021/11/02 05:56:49;;;;;;;;;;;;;;;19.70;63.28;100167.66;4998629;28;1906;-41
2021/11/02 05:59:31;;;;;;;;;;;;;;;19.54;63.59;100160.31;4998266;28;1956;-41
2021/11/02 06:02:11;;;;;;;;;;;;;;;19.53;64.18;100189.97;5008061;28;1573;-41
2021/11/02 06:04:55;;;;;;;;;;;;;;;19.84;64.37;100198.50;5002274;28;1690;-41
2021/11/02 06:07:50;;;;;;;;;;;;;;;19.66;66.39;100218.09;5003687;28;1535;-41
2021/11/02 06:30:27;;;;;;;;;;;;;;;19.63;65.30;100180.84;5040249;28;1866;-40
2021/11/02 06:33:03;;;;;;;;;;;;;;;19.81;65.98;100178.16;5100311;27;2466;-41
2021/11/02 06:35:32;;;;;;;;;;;;;;;19.74;65.85;100187.00;5117112;28;1708;-41
2021/11/02 06:38:23;;;;;;;;;;;;;;;19.74;65.24;100182.47;5121572;28;1725;-41
2021/11/02 06:43:58;;;;;;;;;;;;;;;19.75;65.44;100173.44;5109667;28;1624;-40
2021/11/02 06:49:29;;;;;;;;;;;;;;;19.67;65.68;100151.88;5112690;28;1883;-40
2021/11/02 06:52:22;;;;;;;;;;;;;;;19.91;64.88;100166.50;5112245;28;1901;-40
2021/11/02 06:55:38;;;;;;;;;;;;;;;19.62;66.03;100151.50;5107709;28;1681;-40
2021/11/02 07:15:52;;;;;;;;;;;;;;;20.01;68.51;100111.72;5088334;28;1766;-40
2021/11/02 07:18:21;;;;;;;;;;;;;;;19.71;70.90;100101.44;5102799;28;1642;-40
2021/11/02 07:23:37;;;;;;;;;;;;;;;19.92;70.46;100085.84;5095695;28;2652;-40
2021/11/02 07:26:17;;;;;;;;;;;;;;;19.79;69.83;100077.38;5083516;28;2055;-40
2021/11/02 08:47:21;;;;;;;;;;;;;;;19.61;70.32;99962.06;5081947;28;1768;-41
2021/11/02 08:49:49;;;;;;;;;;;;;;;19.38;70.35;99949.19;5082139;28;1692;-40
2021/11/02 08:52:16;;;;;;;;;;;;;;;19.44;71.23;99956.59;5075065;28;1979;-41
2021/11/02 08:54:43;;;;;;;;;;;;;;;19.39;69.87;99977.69;5092345;28;1831;-41
2021/11/02 08:57:10;;;;;;;;;;;;;;;19.42;71.28;99963.97;5083029;28;1086;-41
2021/11/02 08:59:38;;;;;;;;;;;;;;;19.45;70.45;99973.53;5081191;28;2040;-40
2021/11/02 09:02:06;;;;;;;;;;;;;;;19.43;70.59;99946.88;5090008;28;1969;-41
2021/11/02 09:04:33;;;;;;;;;;;;;;;19.46;70.62;99941.19;5081807;28;1884;-41
2021/11/02 09:07:02;;;;;;;;;;;;;;;19.47;69.58;99948.22;5082778;28;2092;-41
2021/11/02 09:09:32;;;;;;;;;;;;;;;19.41;70.38;99950.72;5082454;28;1574;-40
2021/11/02 09:12:01;;;;;;;;;;;;;;;19.41;69.94;99951.53;5078452;28;1910;-41
2021/11/02 09:14:38;;;;;;;;;;;;;;;19.29;70.00;99963.53;5091162;28;1803;-41
2021/11/02 09:17:10;;;;;;;;;;;;;;;19.16;68.53;99961.28;5081422;28;1742;-41
2021/11/02 09:19:39;;;;;;;;;;;;;;;19.21;67.36;99950.09;5079848;28;1593;-40
2021/11/02 09:22:07;;;;;;;;;;;;;;;19.12;68.03;99941.16;5074676;28;1897;-41
2021/11/02 09:24:35;;;;;;;;;;;;;;;19.07;66.72;99943.44;5080425;28;1916;-41
2021/11/02 09:27:02;;;;;;;;;;;;;;;19.02;66.13;99922.50;5083189;28;1979;-40
2021/11/02 09:29:33;;;;;;;;;;;;;;;18.98;67.23;99926.47;5081876;28;1881;-41
2021/11/02 09:32:03;;;;;;;;;;;;;;;18.99;66.94;99928.16;5082715;28;1898;-40
2021/11/02 09:34:31;;;;;;;;;;;;;;;18.96;65.93;99924.94;5081187;28;1682;-40
2021/11/02 09:37:02;;;;;;;;;;;;;;;19.16;66.03;99920.22;5078871;28;1606;-41
2021/11/02 09:39:38;;;;;;;;;;;;;;;19.29;65.95;99907.25;5080092;28;1750;-41
2021/11/02 09:42:20;;;;;;;;;;;;;;;19.26;66.24;99910.25;5084888;28;1460;-41
2021/11/02 09:45:03;;;;;;;;;;;;;;;19.34;65.23;99912.13;5082174;28;1329;-40
2021/11/02 09:48:02;;;;;;;;;;;;;;;19.34;65.59;99896.03;5073447;28;1649;-40
2021/11/02 09:50:43;;;;;;;;;;;;;;;19.39;65.10;99894.56;5067913;28;1913;-41
2021/11/02 09:53:37;;;;;;;;;;;;;;;19.22;66.33;99887.44;5093393;28;1997;-40
2021/11/02 09:56:07;;;;;;;;;;;;;;;19.31;65.80;99885.66;5084435;28;1955;-41
2021/11/02 09:58:55;;;;;;;;;;;;;;;19.28;66.59;99881.47;5073681;28;1901;-41
2021/11/02 10:01:37;;;;;;;;;;;;;;;19.36;65.98;99886.00;5062905;28;1815;-41
2021/11/02 10:07:37;;;;;;;;;;;;;;;19.22;67.41;99885.59;5079303;28;1907;-41
2021/11/02 10:10:11;;;;;;;;;;;;;;;19.12;67.15;99875.97;5076486;28;2021;-41
2021/11/02 10:12:42;;;;;;;;;;;;;;;19.18;66.96;99875.34;5070643;28;1917;-41
2021/11/02 10:15:34;;;;;;;;;;;;;;;19.10;66.91;99881.50;5079960;28;1775;-40
2021/11/02 10:18:18;;;;;;;;;;;;;;;19.18;66.01;99872.66;5079279;28;1832;-40
2021/11/02 10:21:02;;;;;;;;;;;;;;;19.10;67.36;99860.06;5086404;28;1772;-41
2021/11/02 10:23:42;;;;;;;;;;;;;;;19.09;67.20;99858.38;5073003;28;2075;-41
2021/11/02 10:26:25;;;;;;;;;;;;;;;19.15;67.32;99864.94;5074539;28;1831;-41
2021/11/02 10:29:12;;;;;;;;;;;;;;;19.17;66.55;99863.78;5077030;28;2876;-41
2021/11/02 10:31:47;;;;;;;;;;;;;;;19.21;67.16;99859.78;5080746;28;1906;-41
2021/11/02 10:34:25;;;;;;;;;;;;;;;19.12;67.31;99870.63;5083223;28;1640;-41
2021/11/02 10:36:53;;;;;;;;;;;;;;;19.04;67.15;99856.19;5077949;28;1912;-41
2021/11/02 10:39:25;;;;;;;;;;;;;;;19.09;67.34;99863.75;5086862;28;1885;-41
2021/11/02 10:42:02;;;;;;;;;;;;;;;19.16;67.02;99866.63;5083482;28;1916;-41
2021/11/02 10:44:30;;;;;;;;;;;;;;;19.08;66.38;99849.50;5079724;28;2005;-40
2021/11/02 10:47:04;;;;;;;;;;;;;;;19.15;66.41;99859.59;5074817;28;1968;-41
2021/11/02 10:49:33;;;;;;;;;;;;;;;19.13;67.22;99857.06;5075830;28;2017;-41
2021/11/02 10:52:02;;;;;;;;;;;;;;;18.96;67.91;99872.22;5074093;28;1976;-41
2021/11/02 10:54:41;;;;;;;;;;;;;;;19.11;66.98;99871.63;5076630;28;1503;-41
2021/11/02 10:57:24;;;;;;;;;;;;;;;19.16;67.89;99866.63;5075766;28;1140;-40
2021/11/02 10:59:59;;;;;;;;;;;;;;;19.11;68.36;99874.31;5078268;28;1560;-41
2021/11/02 11:02:29;;;;;;;;;;;;;;;18.98;68.02;99883.63;5082054;28;1418;-40
2021/11/02 11:04:56;;;;;;;;;;;;;;;19.18;68.10;99886.91;5076523;28;1888;-41
2021/11/02 11:07:23;;;;;;;;;;;;;;;19.03;68.33;99885.81;5078879;28;1556;-41
2021/11/02 11:09:52;;;;;;;;;;;;;;;18.91;68.63;99887.06;5072920;28;1976;-41
2021/11/02 11:12:20;;;;;;;;;;;;;;;18.91;68.23;99885.22;5078025;28;1914;-41
2021/11/02 11:14:47;;;;;;;;;;;;;;;18.83;68.63;99891.34;5080016;28;1698;-41
2021/11/02 11:17:15;;;;;;;;;;;;;;;18.86;69.26;99892.88;5083129;28;1590;-40
2021/11/02 11:19:55;;;;;;;;;;;;;;;18.86;68.51;99892.88;5079760;28;1945;-41
2021/11/02 11:22:22;;;;;;;;;;;;;;;18.94;67.65;99887.59;5077134;28;1770;-40
2021/11/02 11:24:52;;;;;;;;;;;;;;;19.04;68.17;99896.38;5076350;28;1700;-41
2021/11/02 11:27:19;;;;;;;;;;;;;;;18.87;67.75;99913.31;5078322;28;1361;-42
2021/11/02 11:29:48;;;;;;;;;;;;;;;18.65;64.82;99907.41;5076274;28;1438;-40
2021/11/02 11:32:16;;;;;;;;;;;;;;;18.59;65.51;99908.03;5075554;28;1971;-41
2021/11/02 11:34:45;;;;;;;;;;;;;;;18.62;66.94;99915.78;5079788;28;1587;-41
2021/11/02 11:37:12;;;;;;;;;;;;;;;18.59;66.56;99928.63;5076849;28;1981;-40
2021/11/02 11:39:39;;;;;;;;;;;;;;;18.58;66.80;99933.16;5074244;28;1379;-40
2021/11/02 11:42:05;;;;;;;;;;;;;;;18.57;66.65;99931.44;5076938;28;1825;-40
2021/11/02 11:44:32;;;;;;;;;;;;;;;18.52;66.55;99938.25;5086284;28;2214;-40
2021/11/02 11:47:08;;;;;;;;;;;;;;;18.51;65.43;99942.78;5076023;28;1652;-41
2021/11/02 11:49:35;;;;;;;;;;;;;;;18.50;65.91;99951.78;5078800;28;1460;-40
2021/11/02 11:52:04;;;;;;;;;;;;;;;18.49;65.34;99956.31;5079858;28;1905;-40
2021/11/02 11:54:31;;;;;;;;;;;;;;;18.73;65.70;99962.88;5076210;28;1086;-40
2021/11/02 11:57:01;;;;;;;;;;;;;;;18.80;66.44;99957.78;5078964;28;1940;-41
2021/11/02 11:59:28;;;;;;;;;;;;;;;18.77;65.93;99968.78;5080557;28;1823;-41
2021/11/02 12:02:01;;;;;;;;;;;;;;;18.74;65.50;99963.72;5077137;28;1760;-41
2021/11/02 12:04:31;;;;;;;;;;;;;;;18.77;65.42;99960.75;5080142;28;1955;-40
2021/11/02 12:07:03;;;;;;;;;;;;;;;18.92;67.15;99956.56;5078216;28;1520;-41
2021/11/02 12:09:39;;;;;;;;;;;;;;;19.39;64.94;99966.94;5074720;28;1698;-41
2021/11/02 12:12:05;;;;;;;;;;;;;;;19.46;65.86;99956.47;5076798;28;1973;-40
2021/11/02 12:14:33;;;;;;;;;;;;;;;19.48;66.34;99939.19;5075106;28;1635;-40
2021/11/02 12:17:00;;;;;;;;;;;;;;;19.75;65.62;99953.44;5078716;28;1777;-40
2021/11/02 12:19:39;;;;;;;;;;;;;;;19.66;64.89;99959.75;5078926;28;2010;-40
2021/11/02 12:22:12;;;;;;;;;;;;;;;19.54;65.55;99953.00;5077032;28;1622;-40
2021/11/02 12:24:41;;;;;;;;;;;;;;;19.77;64.61;99954.13;5086249;28;1074;-40
2021/11/02 12:27:11;;;;;;;;;;;;;;;19.94;64.08;99954.22;5084122;28;1497;-40
2021/11/02 12:29:38;;;;;;;;;;;;;;;19.75;65.87;99944.56;5080548;28;1893;-41
2021/11/02 12:32:06;;;;;;;;;;;;;;;19.62;66.26;99936.94;5079862;28;2008;-40
2021/11/02 12:34:43;;;;;;;;;;;;;;;19.82;64.41;99938.41;5078465;28;1902;-40
2021/11/02 12:37:11;;;;;;;;;;;;;;;19.96;65.19;99933.44;5077926;28;2539;-41
2021/11/02 12:39:37;;;;;;;;;;;;;;;19.64;65.13;99940.31;5076478;28;1254;-40
2021/11/02 12:42:06;;;;;;;;;;;;;;;19.47;65.96;99928.63;5079076;28;1872;-41
2021/11/02 12:44:33;;;;;;;;;;;;;;;19.77;66.15;99921.09;5079797;28;1641;-41
2021/11/02 12:47:00;;;;;;;;;;;;;;;19.81;64.68;99935.88;5083402;28;1756;-41
2021/11/02 12:49:32;;;;;;;;;;;;;;;20.17;63.70;99922.25;5082645;28;1753;-41
2021/11/02 12:52:03;;;;;;;;;;;;;;;19.84;65.41;99935.56;5084247;28;1699;-41
2021/11/02 12:54:31;;;;;;;;;;;;;;;19.61;65.28;99929.88;5074988;28;1902;-40
2021/11/02 12:57:01;;;;;;;;;;;;;;;19.58;65.64;99928.38;5080594;28;1952;-40
2021/11/02 12:59:35;;;;;;;;;;;;;;;19.70;66.02;99912.84;5080387;28;1697;-41
2021/11/02 13:02:15;;;;;;;;;;;;;;;19.66;66.39;99924.88;5074791;28;1553;-41
2021/11/02 13:04:42;;;;;;;;;;;;;;;19.50;66.10;99922.09;5084127;28;1426;-40
2021/11/02 13:07:12;;;;;;;;;;;;;;;19.70;65.41;99928.94;5090162;28;1415;-40
2021/11/02 13:09:39;;;;;;;;;;;;;;;19.76;65.94;99922.94;5075984;28;1607;-40
2021/11/02 13:12:07;;;;;;;;;;;;;;;19.72;65.34;99920.75;5079563;28;1548;-40
2021/11/02 13:14:39;;;;;;;;;;;;;;;19.55;66.64;99915.25;5079785;28;1984;-41
2021/11/02 13:17:09;;;;;;;;;;;;;;;19.77;65.65;99915.72;5081567;28;1620;-41
2021/11/02 13:19:37;;;;;;;;;;;;;;;19.91;65.21;99925.00;5080802;28;1606;-40
2021/11/02 13:22:10;;;;;;;;;;;;;;;19.68;66.76;99904.94;5080613;28;1565;-41
2021/11/02 13:24:37;;;;;;;;;;;;;;;19.60;67.68;99917.47;5085478;28;1011;-40
2021/11/02 13:27:06;;;;;;;;;;;;;;;19.80;66.28;99918.09;5077097;28;1502;-41
2021/11/02 13:29:32;;;;;;;;;;;;;;;19.74;67.89;99921.44;5076028;28;1540;-40
2021/11/02 13:32:02;;;;;;;;;;;;;;;19.71;66.63;99929.75;5076523;28;1805;-40
2021/11/02 13:34:36;;;;;;;;;;;;;;;19.60;68.54;99922.84;5082684;28;1914;-41
2021/11/02 13:37:03;;;;;;;;;;;;;;;19.76;67.71;99935.53;5082857;28;1593;-42
2021/11/02 13:39:30;;;;;;;;;;;;;;;19.72;67.06;99947.59;5091030;28;1046;-41
2021/11/02 13:41:57;;;;;;;;;;;;;;;19.67;67.86;99946.16;5079223;28;1517;-40
2021/11/02 13:44:24;;;;;;;;;;;;;;;19.63;67.21;99960.91;5081807;28;1781;-40
2021/11/02 13:46:52;;;;;;;;;;;;;;;19.90;67.14;99939.44;5082726;28;1735;-40
2021/11/02 13:49:20;;;;;;;;;;;;;;;19.74;67.86;99949.09;5077836;28;1638;-41
2021/11/02 13:51:47;;;;;;;;;;;;;;;19.61;68.04;99954.00;5076062;28;1652;-41
2021/11/02 13:54:14;;;;;;;;;;;;;;;19.65;68.04;99947.34;5070851;28;1975;-41
2021/11/02 13:56:42;;;;;;;;;;;;;;;19.83;66.88;99955.31;5078246;28;1730;-41
2021/11/02 13:59:09;;;;;;;;;;;;;;;19.65;67.17;99941.97;5083137;28;1917;-41
2021/11/02 14:01:37;;;;;;;;;;;;;;;19.49;67.64;99932.00;5082976;28;1935;-41
2021/11/02 14:04:06;;;;;;;;;;;;;;;19.65;68.38;99915.16;5078873;28;1786;-41
2021/11/02 14:06:37;;;;;;;;;;;;;;;19.74;67.88;99902.66;5078069;28;1644;-41
2021/11/02 14:09:04;;;;;;;;;;;;;;;19.62;67.54;99894.03;5080306;28;1706;-41
2021/11/02 14:11:32;;;;;;;;;;;;;;;19.48;68.89;99898.16;5075223;28;1613;-41
2021/11/02 14:13:58;;;;;;;;;;;;;;;19.62;68.38;99902.06;5074248;28;1915;-41
2021/11/02 14:16:29;;;;;;;;;;;;;;;19.60;68.64;99910.28;5081520;28;1540;-41
2021/11/02 14:18:55;;;;;;;;;;;;;;;19.51;68.02;99911.22;5077834;28;1677;-41
2021/11/02 14:21:37;;;;;;;;;;;;;;;19.41;68.86;99926.59;5081881;28;1665;-40
2021/11/02 14:24:05;;;;;;;;;;;;;;;19.64;67.64;99956.41;5078634;28;2993;-41
2021/11/02 14:26:35;;;;;;;;;;;;;;;19.73;66.94;99963.50;5077992;28;1627;-41
2021/11/02 14:29:02;;;;;;;;;;;;;;;19.65;67.08;99950.00;5082887;28;1766;-41
2021/11/02 14:31:47;;;;;;;;;;;;;;;19.39;68.15;99940.16;5081199;28;1497;-41
2021/11/02 14:34:32;;;;;;;;;;;;;;;19.58;67.09;99955.19;5085268;28;1905;-41
2021/11/02 14:37:09;;;;;;;;;;;;;;;19.64;67.94;99942.97;5086585;28;1938;-41
2021/11/02 14:39:53;;;;;;;;;;;;;;;19.52;68.23;99941.56;5095388;28;1060;-41
2021/11/02 14:42:34;;;;;;;;;;;;;;;19.43;68.19;99925.41;5082062;28;1232;-42
2021/11/02 14:45:01;;;;;;;;;;;;;;;19.68;66.93;99930.94;5091086;28;1558;-41
2021/11/02 14:47:33;;;;;;;;;;;;;;;19.61;68.31;99938.75;5085580;28;1664;-41
2021/11/02 14:49:59;;;;;;;;;;;;;;;19.44;67.45;99943.19;5081100;28;1553;-41
2021/11/02 14:52:26;;;;;;;;;;;;;;;19.48;68.08;99925.78;5081527;28;1842;-41
2021/11/02 14:54:55;;;;;;;;;;;;;;;19.67;66.91;99924.69;5076514;28;1902;-41
2021/11/02 14:57:50;;;;;;;;;;;;;;;19.59;66.97;99934.56;5083348;28;1690;-41
2021/11/02 15:00:37;;;;;;;;;;;;;;;19.39;67.72;99929.41;5081597;28;1676;-41
2021/11/02 15:03:04;;;;;;;;;;;;;;;19.69;67.72;99948.69;5082976;28;1739;-41
2021/11/02 15:05:30;;;;;;;;;;;;;;;19.62;66.71;99953.88;5084276;28;1513;-41
2021/11/02 15:07:58;;;;;;;;;;;;;;;19.56;66.95;99967.91;5085445;28;1086;-41
2021/11/02 15:10:25;;;;;;;;;;;;;;;19.38;68.75;99951.03;5092751;28;1757;-41
2021/11/02 15:12:52;;;;;;;;;;;;;;;19.52;67.30;99954.97;5079885;28;1627;-41
2021/11/02 15:15:18;;;;;;;;;;;;;;;19.65;66.67;99960.75;5081165;28;2131;-41
2021/11/02 15:17:47;;;;;;;;;;;;;;;19.57;67.56;99971.44;5083770;28;1686;-41
2021/11/02 15:20:18;;;;;;;;;;;;;;;19.41;68.30;99937.31;5077178;28;1587;-41
2021/11/02 15:22:45;;;;;;;;;;;;;;;19.77;67.10;99951.44;5080766;28;1523;-41
2021/11/02 15:25:13;;;;;;;;;;;;;;;19.79;67.24;99953.97;5081941;28;1531;-41
2021/11/02 15:27:41;;;;;;;;;;;;;;;19.57;68.06;99933.88;5076092;28;1668;-41
2021/11/02 15:30:10;;;;;;;;;;;;;;;19.52;67.83;99936.19;5083302;28;1637;-41
2021/11/02 15:32:38;;;;;;;;;;;;;;;19.74;66.33;99946.41;5080151;28;1814;-41
2021/11/02 15:35:06;;;;;;;;;;;;;;;19.71;66.56;99965.50;5081078;28;1973;-41
2021/11/02 15:37:34;;;;;;;;;;;;;;;19.57;67.49;99968.75;5075700;28;1939;-41
2021/11/02 15:40:02;;;;;;;;;;;;;;;19.61;68.10;99965.56;5091627;28;1945;-41
2021/11/02 15:42:30;;;;;;;;;;;;;;;19.90;66.70;99977.00;5083835;28;1664;-41
2021/11/02 15:44:59;;;;;;;;;;;;;;;19.98;65.74;99969.00;5082316;28;1483;-41
2021/11/02 15:47:26;;;;;;;;;;;;;;;19.93;66.79;99992.78;5080373;28;1524;-41
2021/11/02 15:49:57;;;;;;;;;;;;;;;19.74;66.42;99991.19;5081230;28;1630;-42
2021/11/02 15:52:24;;;;;;;;;;;;;;;19.90;66.40;99980.53;5082456;28;1484;-41
2021/11/02 15:54:50;;;;;;;;;;;;;;;20.04;67.06;99992.50;5093588;28;1910;-42
2021/11/02 15:57:17;;;;;;;;;;;;;;;19.93;67.78;99971.31;5078868;28;3242;-41
2021/11/02 15:59:43;;;;;;;;;;;;;;;19.82;67.62;99973.28;5081969;28;1541;-41
2021/11/02 16:02:12;;;;;;;;;;;;;;;19.91;68.04;99992.09;5083666;28;1720;-41
2021/11/02 16:04:39;;;;;;;;;;;;;;;20.11;67.38;99974.72;5079781;28;1616;-41
2021/11/02 16:07:06;;;;;;;;;;;;;;;19.86;68.79;99988.06;5079670;28;1861;-42
2021/11/02 16:09:53;;;;;;;;;;;;;;;19.74;68.13;99999.22;5075747;28;1523;-42
2021/11/02 16:12:22;;;;;;;;;;;;;;;20.02;68.17;99989.13;5084187;28;1564;-41
2021/11/02 16:14:53;;;;;;;;;;;;;;;19.97;68.66;99999.50;5086987;28;1974;-41
2021/11/02 16:17:22;;;;;;;;;;;;;;;19.92;69.71;99996.47;5053915;28;10833;-42
2021/11/02 16:19:48;;;;;;;;;;;;;;;19.76;70.00;99998.06;5022083;28;1614;-42
2021/11/02 16:22:15;;;;;;;;;;;;;;;20.24;70.46;99985.84;5005349;28;1772;-41
2021/11/02 16:24:42;;;;;;;;;;;;;;;20.01;68.67;99998.19;5013947;28;1579;-43
2021/11/02 16:27:16;;;;;;;;;;;;;;;19.81;69.81;100003.78;5009301;28;1929;-41
2021/11/02 16:29:43;;;;;;;;;;;;;;;19.79;70.08;100000.41;5012440;28;2011;-41
2021/11/02 16:32:18;;;;;;;;;;;;;;;20.30;69.13;100015.75;5012365;28;1752;-41
2021/11/02 16:34:46;;;;;;;;;;;;;;;19.98;68.89;100009.25;5010659;28;1985;-41
2021/11/02 16:37:27;;;;;;;;;;;;;;;19.85;69.21;100023.09;5004285;28;1828;-40
2021/11/02 16:40:08;;;;;;;;;;;;;;;20.12;69.37;100018.53;5004086;28;1973;-41
2021/11/02 16:42:35;;;;;;;;;;;;;;;20.29;68.96;100033.69;5004757;28;1741;-41
2021/11/02 16:45:09;;;;;;;;;;;;;;;20.20;68.45;100030.16;5006423;28;1629;-42
2021/11/02 16:47:36;;;;;;;;;;;;;;;20.14;68.77;100032.63;5009405;28;1539;-40
2021/11/02 16:50:05;;;;;;;;;;;;;;;20.19;69.51;100041.91;5006463;28;1669;-40
2021/11/02 16:52:33;;;;;;;;;;;;;;;20.30;69.36;100039.94;5010726;28;1628;-41
2021/11/02 16:55:07;;;;;;;;;;;;;;;20.17;69.25;100030.44;5012362;28;1902;-41
2021/11/02 16:57:34;;;;;;;;;;;;;;;20.03;69.07;100036.44;5006808;28;1590;-41
2021/11/02 17:00:03;;;;;;;;;;;;;;;20.02;70.27;100032.06;5011460;28;1463;-41
2021/11/02 17:02:32;;;;;;;;;;;;;;;20.01;69.30;100027.69;5009832;28;1459;-41
2021/11/02 17:05:09;;;;;;;;;;;;;;;20.01;70.24;100027.69;5006466;28;1873;-41
2021/11/02 17:07:38;;;;;;;;;;;;;;;20.20;68.28;100032.81;5006323;28;1849;-42
2021/11/02 17:10:28;;;;;;;;;;;;;;;20.42;68.59;100057.41;5011066;28;1625;-41
2021/11/02 17:12:57;;;;;;;;;;;;;;;20.41;68.02;100044.97;5007804;28;1573;-40
2021/11/02 17:15:30;;;;;;;;;;;;;;;20.41;68.07;100031.56;5007367;28;2048;-42
2021/11/02 17:17:58;;;;;;;;;;;;;;;20.37;67.61;100032.88;5003768;28;1996;-42
2021/11/02 17:20:26;;;;;;;;;;;;;;;20.18;69.09;100034.84;5007619;28;1796;-42
2021/11/02 17:22:53;;;;;;;;;;;;;;;20.09;69.25;100046.53;5008499;28;1416;-41
2021/11/02 17:25:20;;;;;;;;;;;;;;;20.38;68.42;100061.44;5010818;28;1723;-41
2021/11/02 17:27:47;;;;;;;;;;;;;;;20.05;68.88;100051.41;5003279;28;1619;-41
2021/11/02 17:30:18;;;;;;;;;;;;;;;20.08;68.49;100049.38;5007021;28;1637;-41
2021/11/02 17:32:45;;;;;;;;;;;;;;;20.04;69.88;100070.34;5003242;28;1502;-42
2021/11/02 17:35:12;;;;;;;;;;;;;;;20.21;69.23;100058.69;5005473;28;1973;-41
2021/11/02 17:37:48;;;;;;;;;;;;;;;20.45;68.34;100062.44;5005274;28;1768;-41
2021/11/02 17:40:17;;;;;;;;;;;;;;;20.40;68.41;100037.94;5010321;28;1754;-41